EBOS

Ostend-Bruges International

Airport
ICAO code
EBOS
Summary
ICAO Region
EUR
ICAO Territory
Location

Ostend,

Coordinates
51° 11' 56" N , 2° 51' 44" E
KCC
Metar
Observation
EBOS 082020Z 30006KT 260V360 5000 -SHRA SCT016TCU BKN025 03/00 Q1008 NOSIG
Station
Oostende Airport
Date/Time
2022-12-08 20:20:00
Wind direction
300°
Wind speed
06 kts
Lowest cloud amount
scattered clouds
Temperature
3°C
Dew point
0°C
Humidity
80%
QNH
1008 hPa
Weather condition
n/a

Description

Ostend-Bruges International Airport is located in Ostend, Belgium, near the coast and about 25 km from the city centre of Bruges. Although an important proportion of the activities focuses on freight transport, it is increasingly used for passenger flights, mainly charter and holiday flights organised by the tour operators. It is also often used for private business flights.

Climatology

Temperate Marine climate/Oceanic climate (Köppen climate classification Cfb) - Moderately cool summer and comparatively warm winter.

Runways

Designator Length Width Surface Rops
14/32 627 45 GRS No/No
8/26 3200 45 CON Yes/Yes

Airport map

Aerial View

SKYbrary Partners:

Safety knowledge contributed by: